Flight Number: EUR3006 Duration: 11:00
Departure: Frankfurt Airport (EDDF) at 08:00 Distance: 5335 Nm
Arrival: Vancouver Airport (CYVR) at 19:00 Equipment: B747

Weather Information
Frankfurt / M-Flughafen, Germany (EDDF) 50-03N 008-36E 113M Jan 21, 2019 - 06:50 AM EST / 2019.01.21 1150 UTC
Wind: from the N (010 degrees) at 6 MPH (5 KT) (direction variable):0
Visibility: greater than 7 mile(s):0
Sky conditions: mostly clear Temperature: 30 F (-1 C)
Windchill: 23 F (-5 C):1 Dew Point: 21 F (-6 C) Relative Humidity: 68% Pressure (altimeter): 30.18 in. Hg (1022 hPa)
ob: EDDF 211150Z 01005KT 340V050 9999 FEW024 M01/M06 Q1022 NOSIG cycle: 12
Sunrise: 07:16 Sunset: 15:57 (UTC)

Vancouver International Air-Port, B. C., Canada (CYVR) 49-11N 123-10W 2M Jan 21, 2019 - 06:00 AM EST / 2019.01.21 1100 UTC
Wind: from the SE (130 degrees) at 5 MPH (4 KT):0
Visibility: 20 mile(s):0
Sky conditions: mostly cloudy Temperature: 33 F (1 C)
Windchill: 28 F (-2 C):1 Dew Point: 32 F (0 C) Relative Humidity: 93% Pressure (altimeter): 30.09 in. Hg (1018 hPa)
ob: CYVR 211100Z 13004KT 20SM BKN024 BKN240 01/00 A3009 RMK SC6CS1 SLP192 cycle: 11
Sunrise: 16:00 Sunset: 00:48 (UTC)

TAF:2019/01/21 12:39 TAF CYVR 211138Z 2112/2218 12006KT P6SM SCT015 BKN025 TEMPO 2112/2120 BKN015 FM212000 12008KT P6SM BKN030 FM220200 10008KT P6SM SCT015 BKN025 FM220900 08010KT P6SM -SHRA BKN015 OVC025 FM221500 09010KT 4SM -RA BR BKN008 OVC015 RMK NXT FCST BY 211500Z

Previous Pireps for this route
Date Aircraft Flight time Fuel used Landing rate On time
2013-06-03A330-20011.03141838-338Charter
2013-07-08B77711.00179441-261Charter
2016-12-29B74711.032045590Yes
(pireps marked green are flown by you)

Route map